sensor_id;sensor_type;location;lat;lon;timestamp;temperature;humidity
47921;DHT22;33686;48.770;9.186;2023-12-22T06:16:13;8.10;99.90
47921;DHT22;33686;48.770;9.186;2023-12-22T06:18:44;8.10;99.90
47921;DHT22;33686;48.770;9.186;2023-12-22T06:21:09;8.00;99.90
47921;DHT22;33686;48.770;9.186;2023-12-22T06:23:36;8.00;99.90
47921;DHT22;33686;48.770;9.186;2023-12-22T06:26:07;8.00;99.90
47921;DHT22;33686;48.770;9.186;2023-12-22T06:28:33;8.00;99.90
47921;DHT22;33686;48.770;9.186;2023-12-22T06:30:58;8.00;99.90
47921;DHT22;33686;48.770;9.186;2023-12-22T06:33:24;8.10;99.90
47921;DHT22;33686;48.770;9.186;2023-12-22T06:35:50;8.00;99.90
47921;DHT22;33686;48.770;9.186;2023-12-22T06:38:19;8.10;99.90
47921;DHT22;33686;48.770;9.186;2023-12-22T06:40:45;8.00;99.90
47921;DHT22;33686;48.770;9.186;2023-12-22T06:43:12;8.00;99.90
47921;DHT22;33686;48.770;9.186;2023-12-22T06:45:38;8.00;99.90
47921;DHT22;33686;48.770;9.186;2023-12-22T06:48:06;8.00;99.90
47921;DHT22;33686;48.770;9.186;2023-12-22T06:50:32;8.00;99.90
47921;DHT22;33686;48.770;9.186;2023-12-22T06:52:57;8.00;99.90
47921;DHT22;33686;48.770;9.186;2023-12-22T06:55:23;8.10;99.90
47921;DHT22;33686;48.770;9.186;2023-12-22T06:57:49;8.10;99.90
47921;DHT22;33686;48.770;9.186;2023-12-22T07:00:15;8.10;99.90
47921;DHT22;33686;48.770;9.186;2023-12-22T07:02:41;8.10;99.90
47921;DHT22;33686;48.770;9.186;2023-12-22T07:07:36;8.10;99.90
47921;DHT22;33686;48.770;9.186;2023-12-22T07:10:01;8.00;99.90
47921;DHT22;33686;48.770;9.186;2023-12-22T07:12:27;8.00;99.90
47921;DHT22;33686;48.770;9.186;2023-12-22T07:14:53;8.00;99.90
47921;DHT22;33686;48.770;9.186;2023-12-22T07:17:19;7.90;99.90
47921;DHT22;33686;48.770;9.186;2023-12-22T07:19:45;7.90;99.90
47921;DHT22;33686;48.770;9.186;2023-12-22T07:22:11;8.00;99.90
47921;DHT22;33686;48.770;9.186;2023-12-22T07:24:36;7.90;99.90
47921;DHT22;33686;48.770;9.186;2023-12-22T07:27:02;7.90;99.90
47921;DHT22;33686;48.770;9.186;2023-12-22T07:29:28;7.80;99.90
47921;DHT22;33686;48.770;9.186;2023-12-22T07:31:54;7.80;99.90
47921;DHT22;33686;48.770;9.186;2023-12-22T07:34:20;7.80;99.90
47921;DHT22;33686;48.770;9.186;2023-12-22T07:36:47;7.70;99.90
47921;DHT22;33686;48.770;9.186;2023-12-22T07:39:13;7.70;99.90
47921;DHT22;33686;48.770;9.186;2023-12-22T07:41:40;7.80;99.90
47921;DHT22;33686;48.770;9.186;2023-12-22T07:44:05;7.80;99.90
47921;DHT22;33686;48.770;9.186;2023-12-22T07:46:31;7.80;99.90
47921;DHT22;33686;48.770;9.186;2023-12-22T07:48:57;7.80;99.90
47921;DHT22;33686;48.770;9.186;2023-12-22T07:51:22;7.80;99.90
47921;DHT22;33686;48.770;9.186;2023-12-22T07:53:48;7.80;99.90
47921;DHT22;33686;48.770;9.186;2023-12-22T07:56:14;7.80;99.90
47921;DHT22;33686;48.770;9.186;2023-12-22T07:58:39;7.80;99.90
47921;DHT22;33686;48.770;9.186;2023-12-22T08:01:05;7.80;99.90
47921;DHT22;33686;48.770;9.186;2023-12-22T08:03:32;7.70;99.90
47921;DHT22;33686;48.770;9.186;2023-12-22T08:05:57;7.70;99.90
47921;DHT22;33686;48.770;9.186;2023-12-22T08:08:23;7.50;99.90
47921;DHT22;33686;48.770;9.186;2023-12-22T08:10:48;7.50;99.90
47921;DHT22;33686;48.770;9.186;2023-12-22T08:13:14;7.40;99.90
47921;DHT22;33686;48.770;9.186;2023-12-22T08:15:40;7.40;99.90
47921;DHT22;33686;48.770;9.186;2023-12-22T08:18:07;7.30;99.90
47921;DHT22;33686;48.770;9.186;2023-12-22T08:20:32;7.30;99.90
47921;DHT22;33686;48.770;9.186;2023-12-22T08:22:58;7.30;99.90
47921;DHT22;33686;48.770;9.186;2023-12-22T08:25:23;7.20;99.90
47921;DHT22;33686;48.770;9.186;2023-12-22T08:27:49;7.10;99.90
47921;DHT22;33686;48.770;9.186;2023-12-22T08:30:14;7.00;99.90
47921;DHT22;33686;48.770;9.186;2023-12-22T08:32:40;7.10;99.90
47921;DHT22;33686;48.770;9.186;2023-12-22T08:35:06;7.10;99.90
47921;DHT22;33686;48.770;9.186;2023-12-22T08:37:32;7.10;99.90
47921;DHT22;33686;48.770;9.186;2023-12-22T08:39:58;7.10;99.90
47921;DHT22;33686;48.770;9.186;2023-12-22T08:42:25;7.20;99.90
47921;DHT22;33686;48.770;9.186;2023-12-22T08:44:51;7.20;99.90
47921;DHT22;33686;48.770;9.186;2023-12-22T08:47:16;7.30;99.90
47921;DHT22;33686;48.770;9.186;2023-12-22T08:49:42;7.40;99.90
47921;DHT22;33686;48.770;9.186;2023-12-22T08:52:08;7.40;99.90
47921;DHT22;33686;48.770;9.186;2023-12-22T08:54:34;7.50;99.90
47921;DHT22;33686;48.770;9.186;2023-12-22T08:57:01;7.60;99.90
47921;DHT22;33686;48.770;9.186;2023-12-22T08:59:27;7.60;99.90
47921;DHT22;33686;48.770;9.186;2023-12-22T09:01:53;7.60;99.90
47921;DHT22;33686;48.770;9.186;2023-12-22T09:04:18;7.70;99.90
47921;DHT22;33686;48.770;9.186;2023-12-22T09:06:46;7.70;99.90
47921;DHT22;33686;48.770;9.186;2023-12-22T09:09:12;7.70;99.90
47921;DHT22;33686;48.770;9.186;2023-12-22T09:11:37;7.70;99.90
47921;DHT22;33686;48.770;9.186;2023-12-22T09:14:05;7.70;99.90
47921;DHT22;33686;48.770;9.186;2023-12-22T09:16:35;7.70;99.90
47921;DHT22;33686;48.770;9.186;2023-12-22T09:19:01;7.80;99.90
47921;DHT22;33686;48.770;9.186;2023-12-22T09:21:27;7.90;99.90
47921;DHT22;33686;48.770;9.186;2023-12-22T09:23:53;7.90;99.90
47921;DHT22;33686;48.770;9.186;2023-12-22T09:26:19;7.90;99.90
47921;DHT22;33686;48.770;9.186;2023-12-22T09:28:45;8.00;99.90
47921;DHT22;33686;48.770;9.186;2023-12-22T09:31:11;8.00;99.90
47921;DHT22;33686;48.770;9.186;2023-12-22T09:33:38;8.00;99.90
47921;DHT22;33686;48.770;9.186;2023-12-22T09:36:05;8.00;99.90
47921;DHT22;33686;48.770;9.186;2023-12-22T09:38:31;8.00;99.90
47921;DHT22;33686;48.770;9.186;2023-12-22T09:40:57;8.10;99.90
47921;DHT22;33686;48.770;9.186;2023-12-22T09:43:23;8.10;99.90
47921;DHT22;33686;48.770;9.186;2023-12-22T09:45:50;8.10;99.90
47921;DHT22;33686;48.770;9.186;2023-12-22T09:48:17;8.20;99.90
47921;DHT22;33686;48.770;9.186;2023-12-22T09:50:46;8.20;99.90
47921;DHT22;33686;48.770;9.186;2023-12-22T09:53:13;8.30;99.90
47921;DHT22;33686;48.770;9.186;2023-12-22T09:55:42;8.20;99.90
47921;DHT22;33686;48.770;9.186;2023-12-22T09:58:09;8.20;99.90
47921;DHT22;33686;48.770;9.186;2023-12-22T10:00:35;8.20;99.90
47921;DHT22;33686;48.770;9.186;2023-12-22T10:03:04;8.30;99.90
47921;DHT22;33686;48.770;9.186;2023-12-22T10:05:31;8.30;99.90
47921;DHT22;33686;48.770;9.186;2023-12-22T10:07:57;8.30;99.90
47921;DHT22;33686;48.770;9.186;2023-12-22T10:10:25;8.30;99.90
47921;DHT22;33686;48.770;9.186;2023-12-22T10:12:51;8.30;99.90
47921;DHT22;33686;48.770;9.186;2023-12-22T10:15:18;8.30;99.90
47921;DHT22;33686;48.770;9.186;2023-12-22T10:17:52;8.40;99.90
47921;DHT22;33686;48.770;9.186;2023-12-22T10:20:18;8.40;99.90
47921;DHT22;33686;48.770;9.186;2023-12-22T10:22:43;8.40;99.90
47921;DHT22;33686;48.770;9.186;2023-12-22T10:25:09;8.40;99.90
47921;DHT22;33686;48.770;9.186;2023-12-22T10:27:37;8.50;99.90
47921;DHT22;33686;48.770;9.186;2023-12-22T10:30:03;8.50;99.90
47921;DHT22;33686;48.770;9.186;2023-12-22T10:32:29;8.50;99.90
47921;DHT22;33686;48.770;9.186;2023-12-22T10:34:56;8.50;99.90
47921;DHT22;33686;48.770;9.186;2023-12-22T10:37:23;8.50;99.90
47921;DHT22;33686;48.770;9.186;2023-12-22T10:39:55;8.50;99.90
47921;DHT22;33686;48.770;9.186;2023-12-22T10:42:20;8.60;99.90
47921;DHT22;33686;48.770;9.186;2023-12-22T10:44:46;8.50;99.90
47921;DHT22;33686;48.770;9.186;2023-12-22T10:47:13;8.50;99.90
47921;DHT22;33686;48.770;9.186;2023-12-22T10:49:39;8.60;99.90
47921;DHT22;33686;48.770;9.186;2023-12-22T10:52:05;8.50;99.90
47921;DHT22;33686;48.770;9.186;2023-12-22T10:54:30;8.50;99.90
47921;DHT22;33686;48.770;9.186;2023-12-22T10:57:00;8.50;99.90
47921;DHT22;33686;48.770;9.186;2023-12-22T10:59:28;8.50;99.90
47921;DHT22;33686;48.770;9.186;2023-12-22T11:01:57;8.50;99.90
47921;DHT22;33686;48.770;9.186;2023-12-22T11:04:29;8.50;99.90
47921;DHT22;33686;48.770;9.186;2023-12-22T11:06:58;8.50;99.90
47921;DHT22;33686;48.770;9.186;2023-12-22T11:09:26;8.40;99.90
47921;DHT22;33686;48.770;9.186;2023-12-22T11:11:56;8.40;99.90
47921;DHT22;33686;48.770;9.186;2023-12-22T11:14:23;8.40;99.90
47921;DHT22;33686;48.770;9.186;2023-12-22T11:16:50;8.40;99.90
47921;DHT22;33686;48.770;9.186;2023-12-22T11:19:18;8.40;99.90
47921;DHT22;33686;48.770;9.186;2023-12-22T11:21:45;8.40;99.90
47921;DHT22;33686;48.770;9.186;2023-12-22T11:24:13;8.30;99.90
47921;DHT22;33686;48.770;9.186;2023-12-22T11:26:41;8.30;99.90
47921;DHT22;33686;48.770;9.186;2023-12-22T11:29:09;8.20;99.90
47921;DHT22;33686;48.770;9.186;2023-12-22T11:31:36;8.30;99.90
47921;DHT22;33686;48.770;9.186;2023-12-22T11:34:05;8.20;99.90
47921;DHT22;33686;48.770;9.186;2023-12-22T11:36:31;8.20;99.90
47921;DHT22;33686;48.770;9.186;2023-12-22T11:38:57;8.20;99.90
47921;DHT22;33686;48.770;9.186;2023-12-22T11:41:27;8.10;99.90
47921;DHT22;33686;48.770;9.186;2023-12-22T11:43:54;8.10;99.90
47921;DHT22;33686;48.770;9.186;2023-12-22T11:46:20;8.10;99.90
47921;DHT22;33686;48.770;9.186;2023-12-22T11:48:49;8.10;99.90
47921;DHT22;33686;48.770;9.186;2023-12-22T11:51:17;8.00;99.90
47921;DHT22;33686;48.770;9.186;2023-12-22T11:53:43;8.00;99.90
47921;DHT22;33686;48.770;9.186;2023-12-22T11:56:10;7.90;99.90
47921;DHT22;33686;48.770;9.186;2023-12-22T11:58:45;7.90;99.90
47921;DHT22;33686;48.770;9.186;2023-12-22T12:01:20;7.90;99.90
47921;DHT22;33686;48.770;9.186;2023-12-22T12:03:55;7.80;99.90
47921;DHT22;33686;48.770;9.186;2023-12-22T12:08:59;7.90;99.90
47921;DHT22;33686;48.770;9.186;2023-12-22T12:14:22;7.90;99.90
47921;DHT22;33686;48.770;9.186;2023-12-22T12:16:48;7.90;99.90
47921;DHT22;33686;48.770;9.186;2023-12-22T12:19:14;7.90;99.90
47921;DHT22;33686;48.770;9.186;2023-12-22T12:21:40;7.90;99.90
47921;DHT22;33686;48.770;9.186;2023-12-22T12:24:06;8.00;99.90
47921;DHT22;33686;48.770;9.186;2023-12-22T12:26:34;7.90;99.90
47921;DHT22;33686;48.770;9.186;2023-12-22T12:29:01;7.90;99.90
47921;DHT22;33686;48.770;9.186;2023-12-22T12:31:36;8.00;99.90
47921;DHT22;33686;48.770;9.186;2023-12-22T12:34:09;8.00;99.90
47921;DHT22;33686;48.770;9.186;2023-12-22T12:36:36;7.90;99.90
47921;DHT22;33686;48.770;9.186;2023-12-22T12:39:07;7.90;99.90
47921;DHT22;33686;48.770;9.186;2023-12-22T12:41:39;8.00;99.90
47921;DHT22;33686;48.770;9.186;2023-12-22T12:44:06;7.90;99.90
47921;DHT22;33686;48.770;9.186;2023-12-22T12:46:37;7.90;99.90
47921;DHT22;33686;48.770;9.186;2023-12-22T12:49:06;7.90;99.90
47921;DHT22;33686;48.770;9.186;2023-12-22T12:51:40;7.90;99.90
47921;DHT22;33686;48.770;9.186;2023-12-22T12:54:07;7.90;99.90
47921;DHT22;33686;48.770;9.186;2023-12-22T12:56:43;7.90;99.90
47921;DHT22;33686;48.770;9.186;2023-12-22T12:59:10;7.90;99.90
47921;DHT22;33686;48.770;9.186;2023-12-22T13:01:43;7.90;99.90
47921;DHT22;33686;48.770;9.186;2023-12-22T13:04:09;7.90;99.90
47921;DHT22;33686;48.770;9.186;2023-12-22T13:06:35;7.90;99.90
47921;DHT22;33686;48.770;9.186;2023-12-22T13:09:01;7.90;99.90
47921;DHT22;33686;48.770;9.186;2023-12-22T13:11:29;7.90;99.90
47921;DHT22;33686;48.770;9.186;2023-12-22T13:13:56;7.90;99.90
47921;DHT22;33686;48.770;9.186;2023-12-22T13:16:24;7.90;99.90
47921;DHT22;33686;48.770;9.186;2023-12-22T13:18:55;7.90;99.90
47921;DHT22;33686;48.770;9.186;2023-12-22T13:21:22;8.00;99.90
47921;DHT22;33686;48.770;9.186;2023-12-22T13:23:48;8.10;99.90
47921;DHT22;33686;48.770;9.186;2023-12-22T13:26:24;8.10;99.90
47921;DHT22;33686;48.770;9.186;2023-12-22T13:28:57;8.20;99.90
47921;DHT22;33686;48.770;9.186;2023-12-22T13:31:23;8.30;99.90
47921;DHT22;33686;48.770;9.186;2023-12-22T13:33:49;8.30;99.90
47921;DHT22;33686;48.770;9.186;2023-12-22T13:36:14;8.40;99.90
47921;DHT22;33686;48.770;9.186;2023-12-22T13:38:48;8.40;99.90
47921;DHT22;33686;48.770;9.186;2023-12-22T13:41:15;8.50;99.90
47921;DHT22;33686;48.770;9.186;2023-12-22T13:43:41;8.60;99.90
47921;DHT22;33686;48.770;9.186;2023-12-22T13:46:07;8.80;99.90
47921;DHT22;33686;48.770;9.186;2023-12-22T13:48:36;8.90;99.90
47921;DHT22;33686;48.770;9.186;2023-12-22T13:51:02;9.00;99.90
47921;DHT22;33686;48.770;9.186;2023-12-22T13:53:29;9.10;99.90
47921;DHT22;33686;48.770;9.186;2023-12-22T13:55:58;9.20;99.90
47921;DHT22;33686;48.770;9.186;2023-12-22T13:58:24;9.20;99.90
47921;DHT22;33686;48.770;9.186;2023-12-22T14:00:50;9.20;99.90
47921;DHT22;33686;48.770;9.186;2023-12-22T14:03:17;9.20;99.90
47921;DHT22;33686;48.770;9.186;2023-12-22T14:05:43;9.20;99.90
47921;DHT22;33686;48.770;9.186;2023-12-22T14:08:09;9.30;99.90
47921;DHT22;33686;48.770;9.186;2023-12-22T14:10:35;9.40;99.90
47921;DHT22;33686;48.770;9.186;2023-12-22T14:13:00;9.30;99.90
47921;DHT22;33686;48.770;9.186;2023-12-22T14:15:26;9.40;99.90
47921;DHT22;33686;48.770;9.186;2023-12-22T14:17:55;9.40;99.90
47921;DHT22;33686;48.770;9.186;2023-12-22T14:20:21;9.40;99.90
47921;DHT22;33686;48.770;9.186;2023-12-22T14:22:46;9.40;99.90
47921;DHT22;33686;48.770;9.186;2023-12-22T14:25:12;9.50;99.90
47921;DHT22;33686;48.770;9.186;2023-12-22T14:27:38;9.50;99.90
47921;DHT22;33686;48.770;9.186;2023-12-22T14:30:04;9.50;99.90
47921;DHT22;33686;48.770;9.186;2023-12-22T14:32:30;9.50;99.90
47921;DHT22;33686;48.770;9.186;2023-12-22T14:34:55;9.50;99.90
47921;DHT22;33686;48.770;9.186;2023-12-22T14:37:21;9.50;99.90
47921;DHT22;33686;48.770;9.186;2023-12-22T14:39:47;9.50;99.90
47921;DHT22;33686;48.770;9.186;2023-12-22T14:42:13;9.50;99.90
47921;DHT22;33686;48.770;9.186;2023-12-22T14:44:39;9.60;99.90
47921;DHT22;33686;48.770;9.186;2023-12-22T14:47:06;9.50;99.90
47921;DHT22;33686;48.770;9.186;2023-12-22T14:49:31;9.50;99.90
47921;DHT22;33686;48.770;9.186;2023-12-22T14:51:57;9.50;99.90
47921;DHT22;33686;48.770;9.186;2023-12-22T14:54:24;9.60;99.90
47921;DHT22;33686;48.770;9.186;2023-12-22T14:56:50;9.60;99.90
47921;DHT22;33686;48.770;9.186;2023-12-22T14:59:16;9.60;99.90
47921;DHT22;33686;48.770;9.186;2023-12-22T15:01:43;9.50;99.90
47921;DHT22;33686;48.770;9.186;2023-12-22T15:04:09;9.60;99.90
47921;DHT22;33686;48.770;9.186;2023-12-22T15:06:38;9.60;99.90
47921;DHT22;33686;48.770;9.186;2023-12-22T15:09:09;9.60;99.90
47921;DHT22;33686;48.770;9.186;2023-12-22T15:11:43;9.70;99.90
47921;DHT22;33686;48.770;9.186;2023-12-22T15:14:09;9.70;99.90
47921;DHT22;33686;48.770;9.186;2023-12-22T15:16:42;9.70;99.90
47921;DHT22;33686;48.770;9.186;2023-12-22T15:19:11;9.70;99.90
47921;DHT22;33686;48.770;9.186;2023-12-22T15:21:37;9.60;99.90
47921;DHT22;33686;48.770;9.186;2023-12-22T15:24:04;9.60;99.90
47921;DHT22;33686;48.770;9.186;2023-12-22T15:26:30;9.60;99.90
47921;DHT22;33686;48.770;9.186;2023-12-22T15:28:56;9.60;99.90
47921;DHT22;33686;48.770;9.186;2023-12-22T15:31:22;9.60;99.90
47921;DHT22;33686;48.770;9.186;2023-12-22T15:33:50;9.60;99.90
47921;DHT22;33686;48.770;9.186;2023-12-22T15:36:19;9.60;99.90
47921;DHT22;33686;48.770;9.186;2023-12-22T15:38:45;9.60;99.90
47921;DHT22;33686;48.770;9.186;2023-12-22T15:41:12;9.60;99.90
47921;DHT22;33686;48.770;9.186;2023-12-22T15:43:37;9.70;99.90
47921;DHT22;33686;48.770;9.186;2023-12-22T15:46:04;9.70;99.90
47921;DHT22;33686;48.770;9.186;2023-12-22T15:48:31;9.70;99.90
47921;DHT22;33686;48.770;9.186;2023-12-22T15:50:57;9.80;99.90
47921;DHT22;33686;48.770;9.186;2023-12-22T15:53:22;9.80;99.90
47921;DHT22;33686;48.770;9.186;2023-12-22T15:55:48;9.80;99.90
47921;DHT22;33686;48.770;9.186;2023-12-22T15:58:14;9.80;99.90
47921;DHT22;33686;48.770;9.186;2023-12-22T16:00:39;9.80;99.90
47921;DHT22;33686;48.770;9.186;2023-12-22T16:03:05;9.80;99.90
47921;DHT22;33686;48.770;9.186;2023-12-22T16:05:32;9.80;99.90
47921;DHT22;33686;48.770;9.186;2023-12-22T16:07:57;9.90;99.90
47921;DHT22;33686;48.770;9.186;2023-12-22T16:10:25;9.90;99.90
47921;DHT22;33686;48.770;9.186;2023-12-22T16:12:54;9.90;99.90
47921;DHT22;33686;48.770;9.186;2023-12-22T16:15:19;9.80;99.90
47921;DHT22;33686;48.770;9.186;2023-12-22T16:17:45;9.90;99.90
47921;DHT22;33686;48.770;9.186;2023-12-22T16:20:11;9.80;99.90
47921;DHT22;33686;48.770;9.186;2023-12-22T16:22:39;9.80;99.90
47921;DHT22;33686;48.770;9.186;2023-12-22T16:25:05;9.80;99.90
47921;DHT22;33686;48.770;9.186;2023-12-22T16:27:32;9.90;99.90
47921;DHT22;33686;48.770;9.186;2023-12-22T16:29:57;9.90;99.90
47921;DHT22;33686;48.770;9.186;2023-12-22T16:32:23;9.90;99.90
47921;DHT22;33686;48.770;9.186;2023-12-22T16:34:49;9.80;99.90
47921;DHT22;33686;48.770;9.186;2023-12-22T16:37:14;9.80;99.90
47921;DHT22;33686;48.770;9.186;2023-12-22T16:39:48;9.70;99.90
47921;DHT22;33686;48.770;9.186;2023-12-22T16:42:14;9.80;99.90
47921;DHT22;33686;48.770;9.186;2023-12-22T16:44:40;9.80;99.90
47921;DHT22;33686;48.770;9.186;2023-12-22T16:47:06;9.80;99.90
47921;DHT22;33686;48.770;9.186;2023-12-22T16:49:31;9.80;99.90
47921;DHT22;33686;48.770;9.186;2023-12-22T16:51:57;9.80;99.90
47921;DHT22;33686;48.770;9.186;2023-12-22T16:54:23;9.80;99.90
47921;DHT22;33686;48.770;9.186;2023-12-22T16:56:48;9.80;99.90
47921;DHT22;33686;48.770;9.186;2023-12-22T16:59:14;9.80;99.90
47921;DHT22;33686;48.770;9.186;2023-12-22T17:01:40;9.80;99.90
47921;DHT22;33686;48.770;9.186;2023-12-22T17:04:05;9.80;99.90
47921;DHT22;33686;48.770;9.186;2023-12-22T17:06:31;9.80;99.90
47921;DHT22;33686;48.770;9.186;2023-12-22T17:08:57;9.80;99.90
47921;DHT22;33686;48.770;9.186;2023-12-22T17:11:22;9.80;99.90
47921;DHT22;33686;48.770;9.186;2023-12-22T17:13:48;9.80;99.90
47921;DHT22;33686;48.770;9.186;2023-12-22T17:16:13;9.80;99.90
47921;DHT22;33686;48.770;9.186;2023-12-22T17:18:39;9.90;99.90
47921;DHT22;33686;48.770;9.186;2023-12-22T17:21:06;9.80;99.90
47921;DHT22;33686;48.770;9.186;2023-12-22T17:23:36;9.90;99.90
47921;DHT22;33686;48.770;9.186;2023-12-22T17:26:01;9.90;99.90
47921;DHT22;33686;48.770;9.186;2023-12-22T17:28:27;9.80;99.90
47921;DHT22;33686;48.770;9.186;2023-12-22T17:30:53;9.90;99.90
47921;DHT22;33686;48.770;9.186;2023-12-22T17:33:18;9.80;99.90
47921;DHT22;33686;48.770;9.186;2023-12-22T17:35:44;9.70;99.90
47921;DHT22;33686;48.770;9.186;2023-12-22T17:38:10;9.70;99.90
47921;DHT22;33686;48.770;9.186;2023-12-22T17:40:35;9.70;99.90
47921;DHT22;33686;48.770;9.186;2023-12-22T17:43:01;9.70;99.90
47921;DHT22;33686;48.770;9.186;2023-12-22T17:45:26;9.70;99.90
47921;DHT22;33686;48.770;9.186;2023-12-22T17:47:52;9.80;99.90
47921;DHT22;33686;48.770;9.186;2023-12-22T17:50:18;9.80;99.90
47921;DHT22;33686;48.770;9.186;2023-12-22T17:52:43;9.80;99.90
47921;DHT22;33686;48.770;9.186;2023-12-22T17:55:09;9.80;99.90
47921;DHT22;33686;48.770;9.186;2023-12-22T17:57:35;9.80;99.90
47921;DHT22;33686;48.770;9.186;2023-12-22T18:00:00;9.80;99.90
47921;DHT22;33686;48.770;9.186;2023-12-22T18:02:26;9.80;99.90
47921;DHT22;33686;48.770;9.186;2023-12-22T18:04:52;9.80;99.90
47921;DHT22;33686;48.770;9.186;2023-12-22T18:07:17;9.80;99.90
47921;DHT22;33686;48.770;9.186;2023-12-22T18:09:43;9.80;99.90
47921;DHT22;33686;48.770;9.186;2023-12-22T18:12:09;9.80;99.90
47921;DHT22;33686;48.770;9.186;2023-12-22T18:14:35;9.80;99.90
47921;DHT22;33686;48.770;9.186;2023-12-22T18:17:00;9.80;99.90
47921;DHT22;33686;48.770;9.186;2023-12-22T18:19:26;9.80;99.90
47921;DHT22;33686;48.770;9.186;2023-12-22T18:21:52;9.80;99.90
47921;DHT22;33686;48.770;9.186;2023-12-22T18:24:17;9.80;99.90
47921;DHT22;33686;48.770;9.186;2023-12-22T18:26:43;9.80;99.90
47921;DHT22;33686;48.770;9.186;2023-12-22T18:31:37;9.80;99.90
47921;DHT22;33686;48.770;9.186;2023-12-22T18:34:03;9.80;99.90
47921;DHT22;33686;48.770;9.186;2023-12-22T18:36:29;9.80;99.90
47921;DHT22;33686;48.770;9.186;2023-12-22T18:38:55;9.70;99.90
47921;DHT22;33686;48.770;9.186;2023-12-22T18:41:21;9.70;99.90
47921;DHT22;33686;48.770;9.186;2023-12-22T18:43:47;9.70;99.90
47921;DHT22;33686;48.770;9.186;2023-12-22T18:46:13;9.70;99.90
47921;DHT22;33686;48.770;9.186;2023-12-22T18:48:41;9.70;99.90
47921;DHT22;33686;48.770;9.186;2023-12-22T18:51:14;9.70;99.90
47921;DHT22;33686;48.770;9.186;2023-12-22T18:53:40;9.70;99.90
47921;DHT22;33686;48.770;9.186;2023-12-22T18:56:09;9.70;99.90
47921;DHT22;33686;48.770;9.186;2023-12-22T18:58:35;9.70;99.90
47921;DHT22;33686;48.770;9.186;2023-12-22T19:01:02;9.60;99.90
47921;DHT22;33686;48.770;9.186;2023-12-22T19:03:28;9.70;99.90
47921;DHT22;33686;48.770;9.186;2023-12-22T19:05:54;9.60;99.90
47921;DHT22;33686;48.770;9.186;2023-12-22T19:08:20;9.60;99.90
47921;DHT22;33686;48.770;9.186;2023-12-22T19:10:45;9.60;99.90
47921;DHT22;33686;48.770;9.186;2023-12-22T19:13:11;9.60;99.90
47921;DHT22;33686;48.770;9.186;2023-12-22T19:15:37;9.60;99.90
47921;DHT22;33686;48.770;9.186;2023-12-22T19:18:04;9.70;99.90
47921;DHT22;33686;48.770;9.186;2023-12-22T19:20:30;9.60;99.90
47921;DHT22;33686;48.770;9.186;2023-12-22T19:22:55;9.60;99.90
47921;DHT22;33686;48.770;9.186;2023-12-22T19:25:21;9.60;99.90
47921;DHT22;33686;48.770;9.186;2023-12-22T19:27:47;9.60;99.90
47921;DHT22;33686;48.770;9.186;2023-12-22T19:30:13;9.60;99.90
47921;DHT22;33686;48.770;9.186;2023-12-22T19:32:39;9.60;99.90
47921;DHT22;33686;48.770;9.186;2023-12-22T19:35:05;9.50;99.90
47921;DHT22;33686;48.770;9.186;2023-12-22T19:37:31;9.50;99.90
47921;DHT22;33686;48.770;9.186;2023-12-22T19:39:56;9.50;99.90
47921;DHT22;33686;48.770;9.186;2023-12-22T19:42:22;9.40;99.90
47921;DHT22;33686;48.770;9.186;2023-12-22T19:44:47;9.40;99.90
47921;DHT22;33686;48.770;9.186;2023-12-22T19:47:14;9.40;99.90
47921;DHT22;33686;48.770;9.186;2023-12-22T19:49:39;9.40;99.90
47921;DHT22;33686;48.770;9.186;2023-12-22T19:52:05;9.40;99.90
47921;DHT22;33686;48.770;9.186;2023-12-22T19:54:30;9.40;99.90
47921;DHT22;33686;48.770;9.186;2023-12-22T19:56:56;9.40;99.90
47921;DHT22;33686;48.770;9.186;2023-12-22T19:59:22;9.40;99.90
47921;DHT22;33686;48.770;9.186;2023-12-22T20:01:47;9.40;99.90
47921;DHT22;33686;48.770;9.186;2023-12-22T20:04:13;9.40;99.90
47921;DHT22;33686;48.770;9.186;2023-12-22T20:06:39;9.40;99.90
47921;DHT22;33686;48.770;9.186;2023-12-22T20:09:08;9.40;99.90
47921;DHT22;33686;48.770;9.186;2023-12-22T20:11:34;9.40;99.90
47921;DHT22;33686;48.770;9.186;2023-12-22T20:13:59;9.40;99.90
47921;DHT22;33686;48.770;9.186;2023-12-22T20:16:25;9.40;99.90
47921;DHT22;33686;48.770;9.186;2023-12-22T20:18:51;9.40;99.90
47921;DHT22;33686;48.770;9.186;2023-12-22T20:21:17;9.40;99.90
47921;DHT22;33686;48.770;9.186;2023-12-22T20:23:43;9.40;99.90
47921;DHT22;33686;48.770;9.186;2023-12-22T20:26:08;9.40;99.90
47921;DHT22;33686;48.770;9.186;2023-12-22T20:28:34;9.40;99.90
47921;DHT22;33686;48.770;9.186;2023-12-22T20:31:01;9.40;99.90
47921;DHT22;33686;48.770;9.186;2023-12-22T20:33:27;9.40;99.90
47921;DHT22;33686;48.770;9.186;2023-12-22T20:35:52;9.40;99.90
47921;DHT22;33686;48.770;9.186;2023-12-22T20:38:18;9.40;99.90
47921;DHT22;33686;48.770;9.186;2023-12-22T20:40:44;9.40;99.90
47921;DHT22;33686;48.770;9.186;2023-12-22T20:43:09;9.40;99.90
47921;DHT22;33686;48.770;9.186;2023-12-22T20:45:35;9.40;99.90
47921;DHT22;33686;48.770;9.186;2023-12-22T20:48:01;9.40;99.90
47921;DHT22;33686;48.770;9.186;2023-12-22T20:50:26;9.30;99.90
47921;DHT22;33686;48.770;9.186;2023-12-22T20:52:52;9.30;99.90
47921;DHT22;33686;48.770;9.186;2023-12-22T20:55:22;9.30;99.90
47921;DHT22;33686;48.770;9.186;2023-12-22T20:57:48;9.30;99.90
47921;DHT22;33686;48.770;9.186;2023-12-22T21:00:15;9.30;99.90
47921;DHT22;33686;48.770;9.186;2023-12-22T21:02:41;9.20;99.90
47921;DHT22;33686;48.770;9.186;2023-12-22T21:05:07;9.20;99.90
47921;DHT22;33686;48.770;9.186;2023-12-22T21:07:33;9.30;99.90
47921;DHT22;33686;48.770;9.186;2023-12-22T21:09:58;9.20;99.90
47921;DHT22;33686;48.770;9.186;2023-12-22T21:12:24;9.20;99.90
47921;DHT22;33686;48.770;9.186;2023-12-22T21:14:50;9.30;99.90
47921;DHT22;33686;48.770;9.186;2023-12-22T21:17:18;9.20;99.90
47921;DHT22;33686;48.770;9.186;2023-12-22T21:19:45;9.20;99.90
47921;DHT22;33686;48.770;9.186;2023-12-22T21:22:11;9.20;99.90
47921;DHT22;33686;48.770;9.186;2023-12-22T21:24:38;9.20;99.90
47921;DHT22;33686;48.770;9.186;2023-12-22T21:27:04;9.30;99.90
47921;DHT22;33686;48.770;9.186;2023-12-22T21:29:30;9.30;99.90
47921;DHT22;33686;48.770;9.186;2023-12-22T21:31:56;9.30;99.90
47921;DHT22;33686;48.770;9.186;2023-12-22T21:34:21;9.20;99.90
47921;DHT22;33686;48.770;9.186;2023-12-22T21:36:47;9.20;99.90
47921;DHT22;33686;48.770;9.186;2023-12-22T21:39:14;9.20;99.90
47921;DHT22;33686;48.770;9.186;2023-12-22T21:41:40;9.20;99.90
47921;DHT22;33686;48.770;9.186;2023-12-22T21:44:05;9.20;99.90
47921;DHT22;33686;48.770;9.186;2023-12-22T21:46:31;9.30;99.90
47921;DHT22;33686;48.770;9.186;2023-12-22T21:48:57;9.30;99.90
47921;DHT22;33686;48.770;9.186;2023-12-22T21:51:23;9.30;99.90
47921;DHT22;33686;48.770;9.186;2023-12-22T21:53:52;9.30;99.90
47921;DHT22;33686;48.770;9.186;2023-12-22T21:56:21;9.30;99.90
47921;DHT22;33686;48.770;9.186;2023-12-22T21:58:47;9.30;99.90
47921;DHT22;33686;48.770;9.186;2023-12-22T22:01:13;9.30;99.90
47921;DHT22;33686;48.770;9.186;2023-12-22T22:03:38;9.30;99.90
47921;DHT22;33686;48.770;9.186;2023-12-22T22:06:04;9.30;99.90